To NAV CANADA Home Page Login to a new session Search on AWWS site Disclaimer Vers la page française équivalente Tips FAQ What's new on the site To the Forecasts and Observations / NOTAM section To "File a Flight Plan" website Publications and other links Update of the User's profile FIC Telephone Numbers My Weather Data Folder Route Weather Data Regional Weather Data Local Weather Data To the Forecasts and Observations / NOTAM section
Request Generated 08/19/2022 at 01:04:21 UTC . Weather information available at that time is displayed.


Save this request

METAR/TAF

ESTEVAN REGIONAL/SK    (show WxCam)

METAR CYEN 190100Z AUTO 01005KT 9SM CLR 23/16 A3003 RMK SLP173 DENSITY ALT 3200FT=
METAR CYEN 190000Z AUTO 30005KT 9SM FEW120 SCT150 22/14 A3003 RMK SLP175 DENSITY ALT 3000FT=
METAR CYEN 182300Z AUTO 01011G20KT 9SM FEW100 24/14 A3002 RMK LTNG DIST SE SLP170 DENSITY ALT 3300FT=

*** REMARK        : Forecast period has ended; this was the last TAF issued
*** REMARQUE : La période de prévision est échue; ceci était le dernier TAF qui a été émis
TAF CYEN 181740Z 1818/1824 35015KT P6SM SKC
FM182000 35015KT P6SM SCT070 TEMPO 1820/1824 VRB15G25KT P6SM
-SHRA VCTS BKN050CB
RMK FCST BASED ON AUTO OBS. NXT FCST BY 191200Z

MOOSE JAW/AIR VICE MARSHAL C.M. MCEWEN/SK    

CYMJ - METAR not available

TAF CYMJ 182340Z NIL
RMK NO OBS. NXT FCST BY 190600Z

REGINA INTL/SK    

METAR CYQR 190100Z 01008KT 15SM FEW060 26/10 A3005 RMK CU1 CU TR SLP180 DENSITY ALT 3400FT=
METAR CYQR 190000Z 01010G18KT 15SM FEW068 27/10 A3005 RMK CU1 CU TR CB TOPS DIST E SLP179 DENSITY ALT 3600FT=
METAR CYQR 182300Z 36013KT 15SM FEW072 FEW120 28/10 A3005 RMK CU1AC1 AC TR SLP179 DENSITY ALT 3700FT=

TAF CYQR 182342Z 1900/1924 35012KT P6SM FEW070
BECMG 1903/1905 05008KT
FM191000 09006KT P6SM FEW060 PROB30 1910/1914 1SM BR
FM191400 12005KT P6SM FEW050
RMK NXT FCST BY 190600Z=

SASKATOON/JOHN G. DIEFENBAKER INTL/SK    

METAR CYXE 190100Z 02008KT 15SM SKC 27/10 A3007 RMK SLP188 DENSITY ALT 3300FT=
METAR CYXE 190000Z 36012KT 15SM FEW080 28/10 A3007 RMK CU2 SLP190 DENSITY ALT 3400FT=
METAR CYXE 182300Z 01009KT 330V040 15SM SCT079 29/10 A3007 RMK CU3 SLP189 DENSITY ALT 3500FT=

TAF CYXE 182340Z 1900/1924 01010KT P6SM SCT080
FM190400 06008KT P6SM SKC
BECMG 1904/1906 VRB03KT
FM190600 VRB03KT P6SM SKC
FM191000 VRB03KT P6SM SKC PROB30 1910/1914 1/2SM FG BKN002
FM191400 16005KT P6SM SKC
RMK NXT FCST BY 190600Z=

YORKTON REGIONAL/SK    (show WxCam)

METAR CYQV 190100Z AUTO 34007KT 9SM SCT076 23/15 A3003 RMK SLP175 DENSITY ALT 2900FT=
METAR CYQV 190000Z AUTO 34009KT 9SM FEW140 24/13 A3002 RMK SLP172 DENSITY ALT 2900FT=
METAR CYQV 182300Z AUTO 34013KT 9SM CLR 24/13 A3003 RMK SLP173 DENSITY ALT 2900FT=

TAF CYQV 182344Z 1900/1906 34012KT P6SM FEW060 TEMPO 1900/1904 P6SM
-SHRA VCTS BKN060CB
BECMG 1902/1904 01008KT
FM190400 01008KT P6SM SCT040
RMK FCST BASED ON AUTO OBS. NXT FCST BY 191200Z=

BRANDON MUNICIPALITY/MB    

METAR CYBR 190100Z 31004KT 15SM FEW050 BKN130 BKN250 19/18 A2995 RMK CU1AC4CI2 SLP148 DENSITY ALT 2100FT=
METAR CYBR 190000Z 28005KT 230V300 15SM FEW060 BKN130 BKN250 19/17 A2996 RMK CU1AC4CI2 SLP154 DENSITY ALT 2100FT=
METAR CYBR 182300Z 21004KT 15SM FEW060TCU BKN130 BKN250 17/16 A2997 RMK TCU2AC3CI2 SLP156 DENSITY ALT 1900FT=

TAF CYBR 182340Z 1900/1912 20005KT P6SM SCT060 BKN120 TEMPO
1900/1906 P6SM -SHRA VCTS BKN040CB
BECMG 1904/1906 02010KT
FM190600 02010KT P6SM FEW050 BKN120 TEMPO 1906/1912 4SM BR
PROB30 1909/1912 1/2SM FG VV002
RMK NXT FCST BY 190600Z

PORTAGE LA PRAIRIE/SOUTHPORT/MB    

METAR CYPG 182200Z 35011G17KT 15SM BKN013 OVC250 23/19 A2989 RMK CU6CI2 DENSITY ALT 2321FT TCU ASOCTD LAST OBS /NEXT 191100 UTC SLP1
21=

TAF CYPG 182340Z NIL
RMK NO OBS. NXT FCST BY 190600Z

WINNIPEG/JAMES ARMSTRONG RICHARDSON INTL/MB    

METAR CYWG 190100Z 34006KT 15SM -SHRA FEW030TCU BKN088 OVC120 19/18 A2986 RMK TCU1AC5AS3 TCU TR SLP116 DENSITY ALT 1500FT=
METAR CYWG 190000Z 01008KT 15SM -SHRA FEW018 FEW030TCU BKN073 OVC100 19/18 A2986 RMK SF1TCU1AC5AS3 SF TR TCU TR SLP117 DENSITY ALT 1
500FT=
METAR CYWG 182300Z 36007KT 15SM -SHRA FEW025TCU OVC100 19/18 A2987 RMK TCU2AS6 SLP120 DENSITY ALT 1500FT=

TAF CYWG 182340Z 1900/1924 36008KT P6SM -SHRA SCT015 BKN040 OVC100
TEMPO 1900/1905 5SM -SHRA BR SCT008 OVC015
FM190500 01010KT P6SM FEW015 OVC100 TEMPO 1905/1914 3SM -SHRA BR
FEW005 OVC012 PROB30 1905/1914 1/2SM FG VV002
FM191400 03015KT P6SM SCT015 BKN040 TEMPO 1914/1920 P6SM -SHRA
BKN015 OVC030
FM192000 03015KT P6SM FEW040
RMK NXT FCST BY 190600Z


Your time UTC time
Weather data provided by Environment Canada and NAV CANADA